Time;durP1;ratioP1;P1;durP2;ratioP2;P2;SDS_P1;SDS_P2;PMS_P1;PMS_P2;Temp;Humidity;BMP_temperature;BMP_pressure;BME280_temperature;BME280_humidity;BME280_pressure;Samples;Min_cycle;Max_cycle;Signal;HPM_P1;HPM_P2
2022/05/14 00:00:36;;;;;;;3.67;1.00;;;;;;;12.74;65.85;101100.91;4926888;28;20027;-77
2022/05/14 00:03:01;;;;;;;5.07;1.10;;;;;;;12.71;66.12;101089.53;4941493;28;20571;-77
2022/05/14 00:05:27;;;;;;;5.22;1.30;;;;;;;12.69;66.36;101089.81;4942514;28;20106;-77
2022/05/14 00:07:53;;;;;;;3.35;1.30;;;;;;;12.64;67.11;101089.84;4927215;28;20023;-77
2022/05/14 00:10:20;;;;;;;4.80;1.00;;;;;;;12.63;67.09;101088.19;4909286;28;20085;-77
2022/05/14 00:13:03;;;;;;;5.60;1.50;;;;;;;12.58;67.06;101093.00;4972120;28;20046;-77
2022/05/14 00:15:30;;;;;;;7.43;1.40;;;;;;;12.53;67.41;101089.09;4933855;28;20037;-77
2022/05/14 00:17:56;;;;;;;5.00;1.10;;;;;;;12.53;67.35;101099.44;4943138;28;20648;-77
2022/05/14 00:20:25;;;;;;;4.03;1.40;;;;;;;12.54;67.56;101101.13;4944142;28;20035;-76
2022/05/14 00:22:52;;;;;;;4.45;1.42;;;;;;;12.51;67.73;101096.13;4973661;28;20034;-76
2022/05/14 00:25:19;;;;;;;5.40;1.50;;;;;;;12.48;67.46;101093.91;4944086;28;20442;-76
2022/05/14 00:27:45;;;;;;;5.10;1.40;;;;;;;12.48;67.85;101091.13;4974493;28;20026;-77
2022/05/14 00:30:12;;;;;;;4.40;1.05;;;;;;;12.48;67.77;101088.31;4926847;28;20023;-76
2022/05/14 00:32:38;;;;;;;3.80;1.20;;;;;;;12.46;67.87;101085.03;4958913;28;20044;-77
2022/05/14 00:35:04;;;;;;;3.40;1.30;;;;;;;12.45;67.59;101086.13;4976299;28;20038;-76
2022/05/14 00:37:30;;;;;;;3.42;1.15;;;;;;;12.43;67.83;101082.81;4958335;28;20387;-76
2022/05/14 00:39:55;;;;;;;4.97;1.20;;;;;;;12.40;67.98;101089.00;4977137;28;20038;-76
2022/05/14 00:42:21;;;;;;;2.30;1.42;;;;;;;12.37;67.86;101083.97;4940670;28;20689;-76
2022/05/14 00:44:46;;;;;;;5.50;1.35;;;;;;;12.34;68.07;101079.00;4971727;28;20026;-77
2022/05/14 00:47:15;;;;;;;5.53;1.20;;;;;;;12.33;68.47;101083.75;4926329;28;20049;-76
2022/05/14 00:49:41;;;;;;;4.45;1.30;;;;;;;12.31;68.24;101088.75;4924687;28;20030;-76
2022/05/14 00:52:18;;;;;;;4.85;1.40;;;;;;;12.30;68.34;101087.94;4941936;28;20046;-76
2022/05/14 00:55:00;;;;;;;5.38;1.70;;;;;;;12.26;68.60;101086.88;4946850;28;20127;-76
2022/05/14 00:57:26;;;;;;;4.68;1.48;;;;;;;12.22;68.92;101082.16;4945551;28;20716;-76
2022/05/14 00:59:52;;;;;;;3.45;1.40;;;;;;;12.21;69.10;101089.69;4961623;28;20026;-76
2022/05/14 01:02:17;;;;;;;4.90;1.50;;;;;;;12.18;69.04;101087.50;4943927;28;20434;-77
2022/05/14 01:04:43;;;;;;;3.50;1.38;;;;;;;12.17;69.09;101085.81;4946144;28;20042;-76
2022/05/14 01:07:14;;;;;;;2.75;1.25;;;;;;;12.16;69.14;101083.34;4946918;28;20035;-76
2022/05/14 01:09:41;;;;;;;2.67;1.20;;;;;;;12.13;69.04;101079.16;4934699;28;20383;-76
2022/05/14 01:12:07;;;;;;;5.85;1.27;;;;;;;12.13;69.21;101081.13;4954044;28;20246;-77
2022/05/14 01:14:33;;;;;;;4.43;1.48;;;;;;;12.15;69.23;101081.69;4930179;28;20031;-76
2022/05/14 01:16:59;;;;;;;4.32;1.40;;;;;;;12.09;69.30;101075.31;4930698;28;20073;-76
2022/05/14 01:19:24;;;;;;;3.60;1.48;;;;;;;12.09;69.44;101078.09;4913684;28;20078;-77
2022/05/14 01:22:21;;;;;;;3.50;1.30;;;;;;;12.08;69.52;101077.25;4914969;28;20495;-76
2022/05/14 01:27:51;;;;;;;4.03;1.52;;;;;;;12.04;69.45;101070.63;4951561;28;20090;-77
2022/05/14 01:30:17;;;;;;;4.63;1.73;;;;;;;12.02;69.65;101069.25;4954106;28;20064;-77
2022/05/14 01:32:45;;;;;;;5.22;1.60;;;;;;;12.00;69.54;101065.91;4927366;29;20029;-77
2022/05/14 01:35:14;;;;;;;4.05;1.42;;;;;;;11.99;69.62;101072.59;4930300;28;20023;-77
2022/05/14 01:37:39;;;;;;;5.95;1.63;;;;;;;11.96;69.44;101057.31;4946240;28;20038;-77
2022/05/14 01:40:05;;;;;;;3.67;1.45;;;;;;;11.95;69.80;101058.44;4946410;28;20031;-76
2022/05/14 01:42:31;;;;;;;4.07;1.23;;;;;;;11.94;70.11;101055.94;4930566;28;20039;-76
2022/05/14 01:44:57;;;;;;;7.03;1.83;;;;;;;11.90;70.56;101061.25;4930285;28;20027;-76
2022/05/14 01:47:23;;;;;;;8.32;1.65;;;;;;;11.88;70.60;101057.94;4924482;29;20065;-77
2022/05/14 01:49:48;;;;;;;6.93;1.40;;;;;;;11.87;70.38;101058.22;4924554;29;20031;-77
2022/05/14 01:52:14;;;;;;;3.83;1.50;;;;;;;11.84;70.54;101048.47;4927028;29;20116;-76
2022/05/14 01:54:40;;;;;;;5.00;1.60;;;;;;;11.82;70.86;101056.28;4918990;28;20027;-76
2022/05/14 01:57:05;;;;;;;6.25;1.45;;;;;;;11.80;70.82;101051.00;4929697;28;20030;-76
2022/05/14 01:59:31;;;;;;;7.05;1.50;;;;;;;11.80;70.67;101050.16;4914001;28;20062;-76
2022/05/14 02:01:56;;;;;;;3.00;1.55;;;;;;;11.79;70.74;101040.16;4944647;28;20031;-76
2022/05/14 02:04:22;;;;;;;3.75;1.30;;;;;;;11.80;70.61;101039.84;4942541;29;20023;-76
2022/05/14 02:06:48;;;;;;;5.40;1.40;;;;;;;11.81;70.32;101049.03;4968885;28;20039;-76
2022/05/14 02:09:13;;;;;;;3.70;1.60;;;;;;;11.82;70.69;101039.56;4925982;29;20031;-76
2022/05/14 02:11:39;;;;;;;3.95;1.40;;;;;;;11.82;70.66;101036.78;4928954;28;20050;-76
2022/05/14 02:14:06;;;;;;;4.07;1.48;;;;;;;11.81;70.69;101035.97;4941436;29;20035;-76
2022/05/14 02:16:31;;;;;;;3.60;1.02;;;;;;;11.80;70.24;101031.50;4943039;28;20067;-76
2022/05/14 02:18:57;;;;;;;4.20;1.40;;;;;;;11.82;70.07;101034.84;4961768;28;20039;-76
2022/05/14 02:21:24;;;;;;;4.20;1.50;;;;;;;11.82;70.49;101039.56;4961635;28;20114;-76
2022/05/14 02:23:53;;;;;;;4.10;1.52;;;;;;;11.81;70.56;101035.13;4949332;29;20058;-76
2022/05/14 02:26:19;;;;;;;3.72;1.33;;;;;;;11.79;70.26;101041.00;4943681;28;20031;-76
2022/05/14 02:28:44;;;;;;;4.28;1.52;;;;;;;11.74;70.67;101035.47;4945522;28;20037;-76
2022/05/14 02:31:10;;;;;;;3.65;1.63;;;;;;;11.74;70.96;101037.41;4924641;29;20215;-76
2022/05/14 02:33:36;;;;;;;5.45;1.83;;;;;;;11.74;70.87;101032.66;4937101;28;20042;-77
2022/05/14 02:36:02;;;;;;;4.20;1.40;;;;;;;11.72;70.95;101029.34;4945412;28;20037;-77
2022/05/14 02:38:30;;;;;;;3.33;1.33;;;;;;;11.71;70.70;101024.91;4929635;28;20034;-77
2022/05/14 02:40:57;;;;;;;4.07;1.73;;;;;;;11.70;71.01;101022.41;4923613;29;20031;-77
2022/05/14 02:43:22;;;;;;;4.07;1.63;;;;;;;11.67;71.08;101015.47;4954199;28;20023;-77
2022/05/14 02:45:48;;;;;;;5.00;1.88;;;;;;;11.67;70.92;101012.69;4944586;28;20034;-77
2022/05/14 02:48:13;;;;;;;7.05;1.83;;;;;;;11.65;71.09;101020.50;4945162;28;20054;-76
2022/05/14 02:50:39;;;;;;;4.38;1.40;;;;;;;11.68;71.01;101014.34;4926053;29;20081;-77
2022/05/14 02:53:04;;;;;;;3.38;1.40;;;;;;;11.66;70.97;101008.25;4920192;28;20070;-77
2022/05/14 02:55:30;;;;;;;4.80;1.63;;;;;;;11.64;70.74;101010.47;4944611;28;20023;-76
2022/05/14 02:57:56;;;;;;;4.00;1.75;;;;;;;11.60;70.60;101006.63;4920217;29;20493;-77
2022/05/14 03:00:21;;;;;;;4.68;1.60;;;;;;;11.60;70.67;101004.66;4943356;28;20043;-77
2022/05/14 03:02:47;;;;;;;3.03;1.48;;;;;;;11.60;70.48;101007.44;4913438;28;20058;-77
2022/05/14 03:05:14;;;;;;;3.88;1.40;;;;;;;11.59;70.80;101003.03;4928754;28;20125;-77
2022/05/14 03:07:40;;;;;;;4.18;1.80;;;;;;;11.58;70.73;101000.50;4941824;28;20105;-76
2022/05/14 03:10:06;;;;;;;5.53;1.90;;;;;;;11.58;70.68;101000.50;4924570;29;20444;-77
2022/05/14 03:12:32;;;;;;;4.38;1.90;;;;;;;11.56;70.47;100994.41;4916998;29;20050;-77
2022/05/14 03:14:57;;;;;;;3.85;1.63;;;;;;;11.57;70.58;100993.28;4910313;29;20031;-77
2022/05/14 03:17:23;;;;;;;4.43;1.55;;;;;;;11.58;71.23;100994.94;4920454;28;20030;-77
2022/05/14 03:19:49;;;;;;;3.72;1.70;;;;;;;11.57;70.76;100990.50;4912726;28;20429;-77
2022/05/14 03:22:15;;;;;;;7.32;1.58;;;;;;;11.53;71.20;100984.72;4913151;28;20641;-76
2022/05/14 03:24:41;;;;;;;5.75;1.98;;;;;;;11.55;71.63;100981.63;4912930;28;20019;-77
2022/05/14 03:27:07;;;;;;;4.85;1.92;;;;;;;11.53;71.52;100987.50;4913097;28;20422;-77
2022/05/14 03:29:34;;;;;;;3.72;1.67;;;;;;;11.51;71.61;100988.91;4960175;28;20073;-77
2022/05/14 03:31:59;;;;;;;2.90;1.65;;;;;;;11.51;71.73;100988.91;4944468;28;20110;-77
2022/05/14 03:34:26;;;;;;;4.32;1.88;;;;;;;11.52;71.94;100990.53;4912497;28;20057;-77
2022/05/14 03:36:51;;;;;;;3.25;1.83;;;;;;;11.51;71.74;100988.91;4912235;29;20039;-76
2022/05/14 03:39:17;;;;;;;4.43;2.03;;;;;;;11.51;72.02;100986.94;4943472;28;20046;-76
2022/05/14 03:41:43;;;;;;;4.28;1.55;;;;;;;11.48;72.11;100983.88;4944560;28;20399;-77
2022/05/14 03:44:08;;;;;;;4.40;1.70;;;;;;;11.48;72.35;100989.44;4928274;28;20023;-77
2022/05/14 03:46:34;;;;;;;6.88;2.17;;;;;;;11.49;72.20;100994.72;4928589;28;20554;-77
2022/05/14 03:49:00;;;;;;;4.28;1.58;;;;;;;11.48;72.24;100989.44;4943105;29;20023;-77
2022/05/14 03:51:26;;;;;;;4.90;1.67;;;;;;;11.48;72.69;100989.44;4934840;28;20068;-77
2022/05/14 03:53:51;;;;;;;5.05;1.50;;;;;;;11.46;72.77;100989.75;4912531;28;20118;-77
2022/05/14 03:56:17;;;;;;;2.88;1.65;;;;;;;11.49;72.44;100991.13;4939834;28;20042;-77
2022/05/14 03:58:43;;;;;;;3.20;1.90;;;;;;;11.48;72.54;100984.72;4940375;28;20677;-77
2022/05/14 04:01:08;;;;;;;4.55;1.45;;;;;;;11.49;72.33;100978.03;4925055;29;20035;-76
2022/05/14 04:03:34;;;;;;;3.53;1.45;;;;;;;11.54;72.30;100985.53;4951582;28;20059;-77
2022/05/14 04:06:01;;;;;;;5.07;1.70;;;;;;;11.54;72.33;100979.97;4923509;28;20023;-77
2022/05/14 04:08:26;;;;;;;4.63;1.88;;;;;;;11.55;72.16;100976.88;4941467;28;20117;-77
2022/05/14 04:10:52;;;;;;;3.65;1.63;;;;;;;11.55;72.32;100978.84;4930142;28;20057;-77
2022/05/14 04:13:18;;;;;;;5.15;1.67;;;;;;;11.56;71.87;100972.13;4963172;28;20033;-77
2022/05/14 04:15:43;;;;;;;5.20;1.80;;;;;;;11.57;72.21;100977.44;4962773;28;20039;-77
2022/05/14 04:18:09;;;;;;;4.93;1.70;;;;;;;11.57;72.41;100973.81;4975899;28;20027;-76
2022/05/14 04:20:35;;;;;;;6.57;1.73;;;;;;;11.57;72.23;100971.88;4944314;28;20041;-77
2022/05/14 04:23:01;;;;;;;5.57;1.55;;;;;;;11.60;71.67;100974.06;4960413;28;20030;-77
2022/05/14 04:25:27;;;;;;;3.60;1.73;;;;;;;11.64;71.63;100974.31;4931609;28;20026;-77
2022/05/14 04:27:53;;;;;;;4.22;1.67;;;;;;;11.65;71.87;100973.22;4963212;28;20062;-77
2022/05/14 04:30:18;;;;;;;3.63;1.80;;;;;;;11.67;71.50;100973.72;4946674;28;20030;-77
2022/05/14 04:32:44;;;;;;;4.47;1.50;;;;;;;11.68;71.47;100982.94;4959489;28;20057;-77
2022/05/14 04:35:11;;;;;;;3.65;1.95;;;;;;;11.71;71.26;100976.78;4938043;28;20062;-77
2022/05/14 04:37:36;;;;;;;3.97;1.60;;;;;;;11.71;71.18;100977.59;4946964;28;20062;-77
2022/05/14 04:40:04;;;;;;;7.20;1.55;;;;;;;11.71;71.21;100976.78;4974072;28;20387;-77
2022/05/14 04:42:29;;;;;;;5.25;2.10;;;;;;;11.72;71.77;100970.91;4946243;28;20037;-76
2022/05/14 04:44:55;;;;;;;5.25;1.65;;;;;;;11.75;71.57;100973.09;4974375;28;20408;-77
2022/05/14 04:47:21;;;;;;;4.55;1.80;;;;;;;11.75;71.53;100969.50;4934567;28;20049;-77
2022/05/14 04:49:47;;;;;;;4.70;1.70;;;;;;;11.76;71.71;100973.97;4945444;28;20031;-77
2022/05/14 04:52:13;;;;;;;3.75;1.67;;;;;;;11.76;71.33;100960.06;4962861;28;20030;-77
2022/05/14 04:54:38;;;;;;;4.75;1.77;;;;;;;11.76;71.54;100958.09;4965109;28;20041;-77
2022/05/14 04:57:04;;;;;;;4.00;1.73;;;;;;;11.76;71.56;100963.66;4959999;28;20087;-76
2022/05/14 04:59:30;;;;;;;3.70;1.75;;;;;;;11.74;71.79;100960.31;4966250;28;20030;-77
2022/05/14 05:04:40;;;;;;;3.80;1.58;;;;;;;11.76;71.90;100969.22;4968651;28;20033;-77
2022/05/14 05:07:07;;;;;;;2.90;1.50;;;;;;;11.76;71.94;100972.00;4959810;28;20068;-77
2022/05/14 05:09:33;;;;;;;4.75;1.80;;;;;;;11.76;72.28;100977.56;4999711;28;20383;-77
2022/05/14 05:11:58;;;;;;;4.55;1.90;;;;;;;11.78;72.26;100975.34;4955226;28;20101;-77
2022/05/14 05:14:24;;;;;;;3.30;1.60;;;;;;;11.75;72.34;100978.66;4962350;28;20395;-77
2022/05/14 05:16:50;;;;;;;3.20;2.00;;;;;;;11.75;72.23;100981.44;4947181;28;20057;-77
2022/05/14 05:19:17;;;;;;;4.75;1.77;;;;;;;11.75;72.37;100983.41;4962438;28;20499;-78
2022/05/14 05:21:43;;;;;;;6.85;1.83;;;;;;;11.76;72.25;100988.69;4947633;28;20066;-78
2022/05/14 05:24:09;;;;;;;5.53;1.77;;;;;;;11.77;72.38;100973.66;4930693;28;20050;-78
2022/05/14 05:26:35;;;;;;;3.78;1.52;;;;;;;11.78;72.28;100980.91;4930731;28;20026;-78
2022/05/14 05:29:00;;;;;;;4.35;1.77;;;;;;;11.81;72.04;100969.19;4928759;28;20035;-78
2022/05/14 05:31:26;;;;;;;3.47;1.90;;;;;;;11.85;72.19;100983.34;4943335;28;20038;-78
2022/05/14 05:33:51;;;;;;;4.97;2.00;;;;;;;11.87;72.36;100980.28;4929392;28;20459;-77
2022/05/14 05:36:17;;;;;;;3.33;1.75;;;;;;;11.89;72.15;100969.69;4943194;29;20038;-78
2022/05/14 05:38:42;;;;;;;6.32;2.05;;;;;;;11.92;72.04;100966.31;4927998;28;20551;-78
2022/05/14 05:41:08;;;;;;;4.15;1.88;;;;;;;11.98;71.69;100970.72;4946588;28;20042;-78
2022/05/14 05:43:33;;;;;;;4.43;1.70;;;;;;;12.02;71.52;100972.63;4927456;28;20027;-77
2022/05/14 05:45:59;;;;;;;2.90;1.70;;;;;;;12.07;71.89;100967.03;4946154;28;20407;-78
2022/05/14 05:48:24;;;;;;;4.13;1.70;;;;;;;12.09;71.97;100977.88;4930418;28;20043;-78
2022/05/14 05:50:50;;;;;;;4.25;1.63;;;;;;;12.15;71.93;100978.66;4929951;28;20034;-78
2022/05/14 05:53:16;;;;;;;4.47;1.80;;;;;;;12.17;71.83;100980.00;4930299;28;20034;-78
2022/05/14 05:58:26;;;;;;;4.55;1.70;;;;;;;12.27;71.86;100973.50;4933322;28;20078;-78
2022/05/14 06:00:52;;;;;;;3.55;1.63;;;;;;;12.33;72.45;100977.06;4945967;28;20023;-78
2022/05/14 06:03:17;;;;;;;3.45;1.60;;;;;;;12.38;72.39;100971.44;4945435;28;20058;-78
2022/05/14 06:05:43;;;;;;;3.30;1.75;;;;;;;12.45;73.18;100974.69;4946528;28;20033;-77
2022/05/14 06:08:13;;;;;;;5.22;1.67;;;;;;;12.51;71.96;100971.59;4930773;28;20093;-78
2022/05/14 06:10:39;;;;;;;2.95;1.75;;;;;;;12.59;72.68;100963.69;4930077;28;20110;-78
2022/05/14 06:13:08;;;;;;;4.13;1.70;;;;;;;12.67;72.13;100965.81;4944909;28;20054;-77
2022/05/14 06:15:33;;;;;;;8.25;1.85;;;;;;;12.75;72.49;100970.75;4961104;28;20113;-77
2022/05/14 06:18:01;;;;;;;4.72;1.70;;;;;;;12.85;71.50;100976.19;4964574;28;20058;-69
2022/05/14 06:20:27;;;;;;;4.55;1.90;;;;;;;12.96;71.49;100977.72;4977510;28;20093;-69
2022/05/14 06:22:52;;;;;;;4.57;1.70;;;;;;;13.09;71.61;100978.09;4944008;28;20146;-69
2022/05/14 06:25:18;;;;;;;4.97;1.83;;;;;;;13.22;74.02;100982.13;4977262;28;20572;-73
2022/05/14 06:27:43;;;;;;;4.45;2.10;;;;;;;13.35;75.01;100982.25;4964615;28;20030;-73
2022/05/14 06:30:09;;;;;;;4.65;2.30;;;;;;;13.50;75.02;100988.72;4945219;28;20049;-73
2022/05/14 06:32:36;;;;;;;10.65;2.35;;;;;;;13.66;71.74;100980.94;4962026;28;20037;-73
2022/05/14 06:35:02;;;;;;;5.13;1.80;;;;;;;13.81;73.42;100978.72;4948497;28;20448;-73
2022/05/14 06:37:28;;;;;;;6.28;1.80;;;;;;;13.95;71.92;100984.34;4980812;28;20064;-73
2022/05/14 06:39:53;;;;;;;10.15;2.90;;;;;;;14.11;72.28;100986.91;4945378;28;20030;-72
2022/05/14 06:42:19;;;;;;;11.63;2.25;;;;;;;14.22;74.20;100977.19;4944525;28;20050;-73
2022/05/14 06:44:44;;;;;;;9.25;2.20;;;;;;;14.33;72.82;100973.06;4942372;28;20110;-73
2022/05/14 06:47:10;;;;;;;4.88;2.08;;;;;;;14.44;73.31;100971.75;4964289;28;20084;-73
2022/05/14 06:49:35;;;;;;;8.32;2.10;;;;;;;14.58;72.55;100976.56;4939952;28;20038;-73
2022/05/14 06:52:01;;;;;;;5.68;1.83;;;;;;;14.74;71.30;100977.91;4974128;28;20550;-73
2022/05/14 06:54:27;;;;;;;10.93;2.50;;;;;;;14.90;73.82;100972.81;4944956;28;20113;-73
2022/05/14 06:56:52;;;;;;;7.22;2.22;;;;;;;15.08;73.71;100976.63;4962952;28;20035;-73
2022/05/14 06:59:18;;;;;;;7.25;2.10;;;;;;;15.26;72.11;100978.44;4963064;28;20105;-74
2022/05/14 07:01:45;;;;;;;7.47;2.20;;;;;;;15.47;71.84;100978.00;4980345;28;20092;-74
2022/05/14 07:06:57;;;;;;;5.88;2.03;;;;;;;15.91;68.00;100974.44;4955126;28;20022;-76
2022/05/14 07:09:27;;;;;;;6.78;2.30;;;;;;;16.10;69.19;100979.81;4964696;28;20057;-77
2022/05/14 07:11:58;;;;;;;4.78;1.85;;;;;;;16.32;67.35;100981.75;4961170;28;20563;-76
2022/05/14 07:14:24;;;;;;;6.55;1.60;;;;;;;16.56;66.37;100963.75;4927555;28;20566;-76
2022/05/14 07:16:50;;;;;;;3.63;1.35;;;;;;;16.78;64.98;100965.69;4959979;28;20043;-76
2022/05/14 07:19:19;;;;;;;3.85;1.35;;;;;;;16.95;64.92;100974.97;4944465;28;20044;-71
2022/05/14 07:21:45;;;;;;;7.95;1.50;;;;;;;17.05;64.27;100965.41;4932034;28;20031;-71
2022/05/14 07:24:19;;;;;;;5.78;1.60;;;;;;;17.15;63.26;100959.47;4928527;28;20085;-71
2022/05/14 07:26:44;;;;;;;8.20;1.42;;;;;;;17.30;62.77;100965.78;4927041;28;20035;-71
2022/05/14 07:29:13;;;;;;;6.78;1.65;;;;;;;17.40;62.18;100962.66;4944051;28;20034;-71
2022/05/14 07:31:39;;;;;;;5.72;1.33;;;;;;;17.48;62.54;100967.44;4957876;28;20070;-72
2022/05/14 07:34:05;;;;;;;5.47;1.25;;;;;;;17.59;62.00;100968.78;4959062;28;20134;-72
2022/05/14 07:36:32;;;;;;;5.43;1.40;;;;;;;17.72;61.55;100963.31;4960172;28;20066;-72
2022/05/14 07:39:00;;;;;;;10.35;2.00;;;;;;;17.81;61.12;100958.56;4944343;28;20043;-72
2022/05/14 07:41:26;;;;;;;7.75;1.48;;;;;;;17.87;60.13;100971.25;4960410;28;20391;-72
2022/05/14 07:43:52;;;;;;;3.45;1.40;;;;;;;17.95;60.00;100966.81;4955837;28;20384;-72
2022/05/14 07:46:22;;;;;;;4.07;1.20;;;;;;;18.05;59.44;100967.28;4935264;28;20042;-73
2022/05/14 07:48:48;;;;;;;5.55;1.60;;;;;;;18.13;59.43;100965.59;4944669;28;20035;-72
2022/05/14 07:51:13;;;;;;;4.53;1.80;;;;;;;18.23;58.63;100964.44;4945853;29;20031;-72
2022/05/14 07:53:39;;;;;;;4.55;1.27;;;;;;;18.36;58.20;100968.16;4942908;28;20039;-72
2022/05/14 07:56:05;;;;;;;7.47;1.80;;;;;;;18.49;57.47;100962.34;4944405;28;20109;-72
2022/05/14 07:58:34;;;;;;;7.05;1.73;;;;;;;18.57;57.28;100971.91;4928666;28;20491;-72
2022/05/14 08:00:59;;;;;;;4.32;1.40;;;;;;;18.61;56.61;100966.44;4959961;28;20121;-72
2022/05/14 08:03:26;;;;;;;7.40;1.50;;;;;;;18.71;56.36;100968.88;4959422;28;20022;-70
2022/05/14 08:05:55;;;;;;;7.95;1.60;;;;;;;18.83;56.13;100962.56;4955924;28;20556;-72
2022/05/14 08:08:20;;;;;;;4.63;1.23;;;;;;;18.95;55.77;100948.59;4927481;28;20026;-72
2022/05/14 08:10:48;;;;;;;4.75;1.30;;;;;;;19.06;55.11;100957.47;4947077;28;20042;-70
2022/05/14 08:13:16;;;;;;;4.57;1.50;;;;;;;19.14;54.93;100950.97;4947520;28;20434;-72
2022/05/14 08:15:42;;;;;;;4.45;1.70;;;;;;;19.30;54.56;100951.16;4992221;28;20407;-71
2022/05/14 08:18:08;;;;;;;8.93;1.80;;;;;;;19.40;53.98;100948.78;4982733;28;20045;-77
2022/05/14 08:20:34;;;;;;;6.75;1.30;;;;;;;19.52;54.02;100948.00;4950964;28;20026;-70
2022/05/14 08:25:44;;;;;;;6.30;1.13;;;;;;;19.73;53.59;100933.94;4985550;28;20081;-68
2022/05/14 08:28:10;;;;;;;9.70;1.65;;;;;;;19.79;53.60;100934.56;4948902;28;20070;-68
2022/05/14 08:30:35;;;;;;;6.10;1.45;;;;;;;19.88;53.14;100932.47;4977365;28;20403;-68
2022/05/14 08:33:02;;;;;;;5.40;1.63;;;;;;;19.95;52.27;100938.38;4963412;28;20027;-70
2022/05/14 08:35:28;;;;;;;5.90;1.63;;;;;;;20.03;52.58;100930.97;4934158;28;20037;-70
2022/05/14 08:37:54;;;;;;;4.72;1.40;;;;;;;20.08;52.42;100925.13;4955119;28;20033;-70
2022/05/14 08:40:28;;;;;;;8.18;2.38;;;;;;;20.19;52.35;100922.69;4961271;28;20034;-71
2022/05/14 08:42:55;;;;;;;7.20;1.67;;;;;;;20.25;52.34;100924.94;4983097;28;20026;-71
2022/05/14 08:45:22;;;;;;;5.63;1.92;;;;;;;20.29;51.91;100923.06;4995276;28;20046;-71
2022/05/14 08:48:14;;;;;;;4.05;1.40;;;;;;;20.38;52.35;100920.13;4941824;28;20042;-72
2022/05/14 08:50:40;;;;;;;6.90;1.80;;;;;;;20.47;51.79;100915.19;4981564;28;20073;-71
2022/05/14 08:53:10;;;;;;;3.70;1.10;;;;;;;20.61;51.57;100914.88;4966545;28;20038;-72
2022/05/14 08:55:42;;;;;;;4.82;1.30;;;;;;;20.70;50.77;100912.78;4966236;28;20038;-71
2022/05/14 08:58:29;;;;;;;8.00;1.58;;;;;;;20.85;50.54;100916.06;4966852;28;20073;-71
2022/05/14 09:01:01;;;;;;;5.72;1.10;;;;;;;20.91;50.45;100909.81;4962938;28;20502;-71
2022/05/14 09:03:27;;;;;;;5.07;1.30;;;;;;;21.02;50.45;100912.97;4966260;28;20030;-71
2022/05/14 09:05:55;;;;;;;3.45;1.20;;;;;;;21.11;50.24;100899.53;4931281;28;20643;-72
2022/05/14 09:08:20;;;;;;;3.85;1.15;;;;;;;21.22;49.92;100899.88;4996850;28;20109;-71
2022/05/14 09:10:59;;;;;;;5.30;1.40;;;;;;;21.30;49.80;100895.25;4999504;28;20034;-72
2022/05/14 09:13:24;;;;;;;4.57;1.13;;;;;;;21.41;49.78;100896.44;4965589;28;20468;-71
2022/05/14 09:15:59;;;;;;;5.13;1.40;;;;;;;21.45;49.15;100899.34;4980825;28;20034;-71
2022/05/14 09:18:29;;;;;;;6.95;1.50;;;;;;;21.40;49.69;100889.16;4969566;28;20373;-71
2022/05/14 09:21:02;;;;;;;5.07;1.35;;;;;;;21.53;48.99;100887.09;4963247;28;20026;-71
2022/05/14 09:23:46;;;;;;;5.60;1.35;;;;;;;21.56;49.55;100884.38;4962424;28;20039;-71
2022/05/14 09:26:17;;;;;;;4.35;1.38;;;;;;;21.66;49.10;100885.03;4963893;28;20030;-71
2022/05/14 09:28:54;;;;;;;4.68;1.30;;;;;;;21.77;49.73;100880.50;4949554;28;20053;-71
2022/05/14 09:31:33;;;;;;;4.03;1.00;;;;;;;21.83;49.41;100879.06;4962618;28;20499;-71
2022/05/14 09:34:13;;;;;;;3.53;1.20;;;;;;;21.86;49.31;100873.50;4948162;28;20031;-71
2022/05/14 09:36:40;;;;;;;3.42;1.20;;;;;;;21.95;49.14;100878.97;4960123;28;20109;-71
2022/05/14 09:39:08;;;;;;;4.70;1.30;;;;;;;22.07;49.04;100873.25;4949701;28;20038;-71
2022/05/14 09:41:43;;;;;;;4.68;1.17;;;;;;;22.16;48.48;100877.91;4999071;28;20026;-71
2022/05/14 09:44:25;;;;;;;3.97;1.38;;;;;;;22.17;47.77;100871.06;4965060;28;20034;-69
2022/05/14 09:46:52;;;;;;;12.33;1.80;;;;;;;22.24;48.17;100872.13;4949878;28;20069;-69
2022/05/14 09:49:23;;;;;;;4.38;1.10;;;;;;;22.25;47.46;100868.09;4935911;28;20808;-69
2022/05/14 09:51:51;;;;;;;5.43;1.20;;;;;;;22.25;48.39;100855.97;4946282;28;20522;-69
2022/05/14 09:54:18;;;;;;;8.13;1.27;;;;;;;22.31;47.83;100862.97;4965030;28;20038;-69
2022/05/14 09:57:10;;;;;;;4.18;0.90;;;;;;;22.34;47.74;100848.09;4976499;28;20034;-68
2022/05/14 10:00:16;;;;;;;2.42;1.08;;;;;;;22.35;47.33;100848.94;4964825;28;20022;-70
2022/05/14 10:03:20;;;;;;;4.47;0.90;;;;;;;22.48;46.87;100850.47;4969549;28;20034;-70
2022/05/14 10:06:04;;;;;;;6.20;1.42;;;;;;;22.56;46.06;100840.94;4982130;28;20030;-71
2022/05/14 10:08:37;;;;;;;7.90;1.30;;;;;;;22.60;45.92;100841.06;4962970;28;20471;-69
2022/05/14 10:11:12;;;;;;;6.07;1.48;;;;;;;22.63;45.88;100838.31;4950124;28;20508;-69
2022/05/14 10:13:54;;;;;;;7.57;1.08;;;;;;;22.72;45.43;100840.94;4961675;28;20539;-70
2022/05/14 10:16:34;;;;;;;5.40;1.20;;;;;;;22.87;45.47;100844.91;4932523;28;20662;-70
2022/05/14 10:19:29;;;;;;;5.43;1.10;;;;;;;22.92;45.57;100831.28;4942392;29;20121;-69
2022/05/14 10:22:12;;;;;;;4.00;1.08;;;;;;;22.99;45.54;100830.66;4939089;29;20039;-69
2022/05/14 10:27:43;;;;;;;;;;;;;;;23.16;44.98;100829.41;4948255;28;20031;-69
2022/05/14 10:30:21;;;;;;;2.85;0.93;;;;;;;23.16;45.20;100832.22;4929318;28;19964;-69
2022/05/14 10:32:50;;;;;;;8.15;1.30;;;;;;;23.23;45.20;100823.88;4946090;28;20035;-68
2022/05/14 10:35:54;;;;;;;5.65;0.90;;;;;;;23.29;45.02;100825.22;4928318;28;20037;-70
2022/05/14 10:38:43;;;;;;;5.07;1.10;;;;;;;23.38;45.09;100814.47;4961220;28;20067;-70
2022/05/14 10:41:09;;;;;;;3.17;0.98;;;;;;;23.39;45.04;100816.13;4933640;28;20038;-70
2022/05/14 10:43:50;;;;;;;10.45;1.50;;;;;;;23.44;44.64;100817.84;4941841;28;20031;-70
2022/05/14 10:46:21;;;;;;;6.82;1.52;;;;;;;23.49;44.49;100811.06;4941973;29;20035;-69
2022/05/14 10:49:15;;;;;;;3.50;1.13;;;;;;;23.60;44.69;100806.41;4929061;28;20031;-77
2022/05/14 10:52:15;;;;;;;6.30;1.35;;;;;;;23.70;44.14;100802.13;4925304;29;20038;-78
2022/05/14 10:54:41;;;;;;;7.13;1.15;;;;;;;23.74;43.94;100801.03;4907217;29;20075;-77
2022/05/14 10:57:13;;;;;;;5.47;1.00;;;;;;;23.84;43.43;100803.22;4892081;29;20075;-78
2022/05/14 10:59:41;;;;;;;4.78;1.10;;;;;;;23.96;43.27;100788.06;4920892;29;20508;-78
2022/05/14 11:02:30;;;;;;;5.35;1.20;;;;;;;24.01;44.23;100793.38;4872285;29;20083;-78
2022/05/14 11:04:56;;;;;;;4.95;1.00;;;;;;;24.05;43.67;100787.78;4892233;29;20123;-78
2022/05/14 11:08:07;;;;;;;4.47;0.90;;;;;;;24.05;43.44;100767.94;4921950;29;20083;-79
2022/05/14 11:10:34;;;;;;;9.70;1.20;;;;;;;24.10;43.14;100761.94;4862492;29;20045;-79
2022/05/14 11:13:23;;;;;;;5.25;1.25;;;;;;;24.10;43.58;100776.13;4879684;29;20049;-79
2022/05/14 11:16:02;;;;;;;5.88;1.02;;;;;;;24.13;43.02;100772.53;4866266;29;20132;-77
2022/05/14 11:18:27;;;;;;;4.68;1.00;;;;;;;24.20;43.12;100777.50;4886695;29;20099;-78
2022/05/14 11:21:01;;;;;;;6.03;1.02;;;;;;;24.25;42.65;100763.00;4871065;29;20037;-78
2022/05/14 11:23:26;;;;;;;3.03;0.98;;;;;;;24.29;43.04;100764.69;4886950;29;20040;-77
2022/05/14 11:26:08;;;;;;;3.00;1.00;;;;;;;24.34;43.06;100771.22;4900997;29;20095;-78
2022/05/14 11:28:36;;;;;;;5.57;1.20;;;;;;;24.29;42.48;100770.38;4878017;29;20048;-78
2022/05/14 11:31:24;;;;;;;6.55;1.23;;;;;;;24.40;43.05;100762.00;4914323;29;20180;-69
2022/05/14 11:33:50;;;;;;;5.25;1.10;;;;;;;24.49;43.49;100756.09;4883726;29;20040;-71
2022/05/14 11:36:29;;;;;;;5.75;1.30;;;;;;;24.56;42.79;100753.34;4889149;29;20039;-71
2022/05/14 11:39:28;;;;;;;3.30;0.80;;;;;;;24.65;43.53;100756.72;4929899;28;20054;-70
2022/05/14 11:42:06;;;;;;;5.50;1.30;;;;;;;24.70;43.50;100750.69;4959026;28;20050;-71
2022/05/14 11:44:40;;;;;;;6.20;1.25;;;;;;;24.73;43.26;100754.78;4934430;28;20058;-71
2022/05/14 11:47:42;;;;;;;5.18;1.25;;;;;;;24.71;42.70;100752.34;4977412;28;20391;-70
2022/05/14 11:50:08;;;;;;;4.95;1.23;;;;;;;24.67;42.99;100745.78;4961772;28;20096;-71